createdAt,value
2018-06-04T00:01:44.238Z,99.90
2018-06-04T00:04:18.174Z,99.90
2018-06-04T00:06:48.852Z,99.90
2018-06-04T00:09:18.492Z,99.90
2018-06-04T00:11:47.959Z,99.90
2018-06-04T00:14:18.445Z,99.90
2018-06-04T00:16:48.278Z,99.90
2018-06-04T00:19:18.239Z,99.90
2018-06-04T00:21:49.662Z,99.90
2018-06-04T00:24:19.735Z,99.90
2018-06-04T00:27:02.010Z,99.90
2018-06-04T00:29:33.588Z,99.90
2018-06-04T00:32:06.481Z,99.90
2018-06-04T00:34:39.538Z,99.90
2018-06-04T00:37:09.848Z,99.90
2018-06-04T00:39:43.288Z,99.90
2018-06-04T00:42:14.652Z,99.90
2018-06-04T00:44:46.393Z,99.90
2018-06-04T00:47:18.003Z,99.90
2018-06-04T00:49:48.240Z,99.90
2018-06-04T00:52:23.427Z,99.90
2018-06-04T00:54:52.740Z,99.90
2018-06-04T00:57:23.882Z,99.90
2018-06-04T00:59:55.286Z,99.90
2018-06-04T01:02:25.731Z,99.90
2018-06-04T01:04:58.792Z,99.90
2018-06-04T01:10:24.385Z,99.90
2018-06-04T01:12:54.096Z,99.90
2018-06-04T01:15:29.071Z,99.90
2018-06-04T01:17:58.311Z,99.90
2018-06-04T01:20:29.115Z,99.90
2018-06-04T01:22:58.800Z,99.90
2018-06-04T01:25:28.120Z,99.90
2018-06-04T01:28:03.492Z,99.90
2018-06-04T01:30:33.471Z,99.90
2018-06-04T01:33:04.034Z,99.90
2018-06-04T01:35:38.339Z,99.90
2018-06-04T01:38:09.162Z,99.90
2018-06-04T01:40:38.656Z,99.90
2018-06-04T01:43:07.545Z,99.90
2018-06-04T01:45:38.584Z,99.90
2018-06-04T01:48:11.238Z,99.90
2018-06-04T01:50:40.518Z,99.90
2018-06-04T01:53:12.185Z,99.90
2018-06-04T01:55:41.865Z,99.90
2018-06-04T02:01:20.173Z,99.90
2018-06-04T02:03:49.340Z,99.90
2018-06-04T02:06:22.565Z,99.90
2018-06-04T02:08:55.519Z,99.90
2018-06-04T02:11:28.317Z,99.90
2018-06-04T02:13:59.362Z,99.90
2018-06-04T02:16:29.071Z,99.90
2018-06-04T02:18:58.257Z,99.90
2018-06-04T02:21:38.331Z,99.90
2018-06-04T02:24:08.691Z,99.90
2018-06-04T02:26:51.115Z,99.90
2018-06-04T02:29:19.925Z,99.90
2018-06-04T02:31:48.618Z,99.90
2018-06-04T02:34:17.452Z,99.90
2018-06-04T02:36:46.080Z,99.90
2018-06-04T02:39:15.071Z,99.90
2018-06-04T02:41:44.002Z,99.90
2018-06-04T02:44:12.739Z,99.90
2018-06-04T02:46:41.475Z,99.90
2018-06-04T02:49:10.738Z,99.90
2018-06-04T02:51:39.824Z,99.90
2018-06-04T02:54:34.612Z,99.90
2018-06-04T02:57:08.450Z,99.90
2018-06-04T02:59:37.225Z,99.90
2018-06-04T03:02:15.042Z,99.90
2018-06-04T03:04:48.882Z,99.90
2018-06-04T03:07:21.252Z,99.90
2018-06-04T03:15:46.255Z,99.90
2018-06-04T03:27:23.461Z,99.90
2018-06-04T03:29:51.871Z,99.90
2018-06-04T03:32:20.255Z,99.90
2018-06-04T03:34:49.102Z,99.90
2018-06-04T03:37:17.547Z,99.90
2018-06-04T03:39:45.921Z,99.90
2018-06-04T03:42:14.226Z,99.90
2018-06-04T03:44:42.554Z,99.90
2018-06-04T03:47:10.930Z,99.90
2018-06-04T03:49:39.662Z,99.90
2018-06-04T03:52:08.111Z,99.90
2018-06-04T03:54:36.509Z,99.90
2018-06-04T03:57:04.958Z,99.90
2018-06-04T03:59:33.442Z,99.90
2018-06-04T04:02:02.083Z,99.90
2018-06-04T04:04:30.445Z,99.90
2018-06-04T04:06:59.114Z,99.90
2018-06-04T04:09:27.783Z,99.90
2018-06-04T04:11:56.233Z,99.90
2018-06-04T04:14:24.649Z,99.90
2018-06-04T04:16:53.077Z,99.90
2018-06-04T04:19:21.487Z,99.90
2018-06-04T04:21:49.810Z,99.90
2018-06-04T04:24:18.165Z,99.90
2018-06-04T04:26:46.511Z,99.90
2018-06-04T04:29:14.825Z,99.90
2018-06-04T04:31:43.178Z,99.90
2018-06-04T04:34:11.599Z,99.90
2018-06-04T04:36:39.983Z,99.90
2018-06-04T04:39:09.260Z,99.90
2018-06-04T04:41:37.623Z,99.90
2018-06-04T04:44:06.019Z,99.90
2018-06-04T04:46:35.559Z,99.90
2018-06-04T04:49:09.888Z,99.90
2018-06-04T04:51:40.074Z,99.90
2018-06-04T04:54:09.266Z,99.90
2018-06-04T04:56:39.176Z,99.90
2018-06-04T04:59:08.047Z,99.90
2018-06-04T05:01:36.804Z,99.90
2018-06-04T05:04:05.378Z,99.90
2018-06-04T05:06:34.079Z,99.90
2018-06-04T05:09:08.097Z,99.90
2018-06-04T05:11:37.082Z,99.90
2018-06-04T05:14:05.721Z,99.90
2018-06-04T05:16:34.516Z,99.90
2018-06-04T05:19:03.235Z,99.90
2018-06-04T05:21:31.950Z,99.30
2018-06-04T05:24:00.651Z,99.60
2018-06-04T05:26:29.319Z,99.40
2018-06-04T05:28:57.830Z,99.10
2018-06-04T05:31:26.375Z,98.20
2018-06-04T05:33:55.155Z,98.60
2018-06-04T05:36:23.872Z,98.60
2018-06-04T05:38:52.418Z,98.80
2018-06-04T05:41:21.003Z,98.50
2018-06-04T05:43:49.782Z,98.60
2018-06-04T05:46:18.686Z,98.70
2018-06-04T05:48:47.346Z,98.80
2018-06-04T05:51:16.123Z,98.50
2018-06-04T05:53:44.730Z,98.40
2018-06-04T05:56:13.566Z,98.10
2018-06-04T05:58:42.182Z,97.90
2018-06-04T06:01:10.960Z,97.20
2018-06-04T06:03:39.634Z,97.20
2018-06-04T06:06:32.151Z,96.80
2018-06-04T06:09:00.724Z,96.00
2018-06-04T06:11:29.535Z,95.70
2018-06-04T06:13:58.505Z,95.70
2018-06-04T06:16:27.131Z,95.70
2018-06-04T06:18:55.907Z,95.50
2018-06-04T06:21:24.482Z,95.90
2018-06-04T06:23:53.402Z,95.80
2018-06-04T06:26:22.091Z,95.60
2018-06-04T06:28:50.975Z,95.50
2018-06-04T06:31:19.785Z,95.10
2018-06-04T06:33:48.576Z,95.20
2018-06-04T06:36:17.393Z,95.10
2018-06-04T06:38:45.931Z,95.00
2018-06-04T06:41:19.497Z,94.60
2018-06-04T06:43:49.507Z,94.60
2018-06-04T06:46:25.181Z,94.30
2018-06-04T06:48:55.691Z,94.00
2018-06-04T06:51:26.336Z,94.20
2018-06-04T06:53:57.012Z,93.30
2018-06-04T06:56:26.051Z,93.40
2018-06-04T06:58:54.814Z,93.30
2018-06-04T07:01:23.360Z,92.10
2018-06-04T07:03:51.990Z,92.60
2018-06-04T07:06:20.844Z,92.20
2018-06-04T07:08:49.653Z,92.60
2018-06-04T07:11:18.185Z,92.80
2018-06-04T07:16:15.588Z,91.10
2018-06-04T07:18:44.111Z,91.20
2018-06-04T07:21:12.719Z,91.20
2018-06-04T07:23:41.411Z,91.60
2018-06-04T07:26:10.375Z,92.10
2018-06-04T07:28:40.313Z,91.20
2018-06-04T07:31:08.804Z,90.50
2018-06-04T07:33:39.760Z,90.50
2018-06-04T07:36:49.474Z,90.40
2018-06-04T07:39:18.994Z,89.50
2018-06-04T07:41:51.223Z,88.40
2018-06-04T07:44:22.764Z,89.80
2018-06-04T07:46:51.767Z,88.90
2018-06-04T07:49:20.462Z,89.20
2018-06-04T07:52:00.018Z,89.90
2018-06-04T07:54:29.252Z,89.00
2018-06-04T07:56:58.475Z,89.00
2018-06-04T07:59:26.830Z,86.40
2018-06-04T08:01:55.145Z,85.10
2018-06-04T08:04:23.558Z,84.60
2018-06-04T08:06:51.866Z,85.20
2018-06-04T08:09:20.197Z,84.20
2018-06-04T08:11:48.549Z,82.80
2018-06-04T08:14:17.958Z,81.70
2018-06-04T08:16:46.253Z,81.60
2018-06-04T08:19:14.621Z,79.40
2018-06-04T08:21:42.977Z,79.90
2018-06-04T08:24:11.505Z,78.70
2018-06-04T08:26:39.764Z,79.90
2018-06-04T08:29:08.053Z,79.00
2018-06-04T08:31:36.366Z,78.00
2018-06-04T08:34:05.799Z,77.90
2018-06-04T08:36:34.135Z,76.80
2018-06-04T08:39:02.460Z,74.60
2018-06-04T08:41:30.770Z,74.10
2018-06-04T08:43:59.057Z,73.30
2018-06-04T08:46:27.405Z,75.10
2018-06-04T08:48:55.770Z,73.80
2018-06-04T08:51:24.091Z,72.40
2018-06-04T08:53:52.475Z,70.80
2018-06-04T08:56:20.823Z,69.70
2018-06-04T08:58:49.103Z,69.00
2018-06-04T09:01:17.889Z,70.60
2018-06-04T09:03:46.194Z,70.10
2018-06-04T09:06:14.809Z,70.30
2018-06-04T09:08:43.147Z,70.00
2018-06-04T09:11:11.447Z,69.90
2018-06-04T09:13:39.878Z,69.10
2018-06-04T09:16:09.050Z,70.00
2018-06-04T09:18:37.545Z,69.10
2018-06-04T09:21:05.919Z,68.80
2018-06-04T09:23:35.345Z,69.60
2018-06-04T09:26:04.140Z,68.20
2018-06-04T09:28:32.821Z,68.70
2018-06-04T09:31:01.115Z,66.80
2018-06-04T09:33:29.425Z,67.80
2018-06-04T09:38:25.833Z,69.00
2018-06-04T09:40:54.191Z,68.70
2018-06-04T09:43:22.574Z,66.80
2018-06-04T09:45:50.891Z,65.90
2018-06-04T09:48:19.250Z,63.70
2018-06-04T09:50:47.522Z,64.30
2018-06-04T09:53:15.879Z,65.80
2018-06-04T09:55:44.218Z,67.50
2018-06-04T09:58:12.660Z,65.50
2018-06-04T10:00:40.949Z,65.40
2018-06-04T10:03:09.234Z,65.50
2018-06-04T10:05:37.562Z,65.90
2018-06-04T10:08:05.937Z,64.80
2018-06-04T10:10:34.242Z,64.40
2018-06-04T10:13:02.634Z,65.20
2018-06-04T10:15:30.937Z,63.60
2018-06-04T10:17:59.238Z,63.60
2018-06-04T10:20:28.088Z,63.90
2018-06-04T10:22:56.353Z,63.50
2018-06-04T10:25:24.645Z,62.70
2018-06-04T10:27:54.090Z,62.30
2018-06-04T10:30:22.396Z,62.30
2018-06-04T10:32:50.709Z,64.90
2018-06-04T10:35:19.011Z,63.10
2018-06-04T10:37:47.362Z,63.20
2018-06-04T10:40:15.675Z,62.80
2018-06-04T10:42:43.951Z,63.00
2018-06-04T10:45:12.349Z,65.50
2018-06-04T10:47:42.415Z,65.70
2018-06-04T10:50:10.808Z,64.70
2018-06-04T10:52:39.127Z,65.40
2018-06-04T10:55:07.438Z,66.50
2018-06-04T10:57:35.777Z,65.70
2018-06-04T11:02:32.804Z,64.70
2018-06-04T11:05:01.225Z,64.10
2018-06-04T11:07:29.532Z,65.10
2018-06-04T11:09:57.851Z,64.20
2018-06-04T11:12:26.151Z,62.20
2018-06-04T11:17:22.924Z,59.30
2018-06-04T11:19:51.368Z,59.20
2018-06-04T11:22:19.779Z,59.00
2018-06-04T11:24:48.106Z,58.90
2018-06-04T11:27:16.605Z,58.10
2018-06-04T11:29:45.074Z,58.20
2018-06-04T11:32:13.386Z,57.90
2018-06-04T11:34:41.715Z,56.70
2018-06-04T11:37:10.179Z,57.70
2018-06-04T11:39:38.535Z,58.50
2018-06-04T11:42:07.395Z,57.50
2018-06-04T11:44:36.017Z,58.60
2018-06-04T11:47:04.443Z,58.70
2018-06-04T11:49:32.900Z,57.90
2018-06-04T11:52:01.629Z,58.70
2018-06-04T11:54:29.999Z,57.80
2018-06-04T11:56:58.365Z,57.10
2018-06-04T11:59:26.726Z,55.80
2018-06-04T12:01:55.080Z,56.90
2018-06-04T12:04:23.466Z,55.80
2018-06-04T12:06:51.993Z,53.40
2018-06-04T12:09:21.084Z,52.20
2018-06-04T12:11:49.477Z,52.90
2018-06-04T12:14:17.819Z,51.80
2018-06-04T12:16:46.205Z,55.80
2018-06-04T12:19:14.682Z,58.50
2018-06-04T12:21:42.997Z,59.10
2018-06-04T12:24:11.745Z,57.10
2018-06-04T12:26:41.582Z,56.10
2018-06-04T12:29:10.013Z,57.20
2018-06-04T12:31:38.653Z,56.50
2018-06-04T12:34:07.168Z,55.60
2018-06-04T12:36:35.537Z,54.60
2018-06-04T12:39:05.825Z,54.00
2018-06-04T12:41:34.697Z,53.70
2018-06-04T12:44:03.102Z,53.50
2018-06-04T12:46:31.524Z,52.90
2018-06-04T12:51:28.241Z,56.60
2018-06-04T12:53:57.367Z,55.70
2018-06-04T12:56:25.725Z,56.70
2018-06-04T12:58:54.074Z,57.30
2018-06-04T13:01:22.463Z,58.90
2018-06-04T13:03:50.890Z,56.70
2018-06-04T13:06:19.318Z,57.00
2018-06-04T13:08:48.226Z,56.90
2018-06-04T13:11:16.709Z,56.40
2018-06-04T13:13:45.227Z,56.70
2018-06-04T13:16:14.090Z,56.00
2018-06-04T13:21:10.521Z,57.10
2018-06-04T13:23:38.889Z,54.20
2018-06-04T13:26:07.321Z,53.60
2018-06-04T13:28:35.730Z,54.20
2018-06-04T13:31:04.105Z,53.50
2018-06-04T13:33:32.581Z,53.20
2018-06-04T13:36:01.096Z,51.10
2018-06-04T13:38:29.436Z,53.50
2018-06-04T13:40:57.770Z,54.00
2018-06-04T13:43:26.452Z,54.40
2018-06-04T13:45:54.826Z,55.30
2018-06-04T13:48:23.279Z,56.60
2018-06-04T13:50:51.722Z,54.00
2018-06-04T13:53:20.089Z,55.40
2018-06-04T13:55:48.579Z,53.70
2018-06-04T13:58:16.887Z,51.90
2018-06-04T14:00:45.465Z,52.30
2018-06-04T14:03:13.837Z,51.10
2018-06-04T14:05:42.286Z,52.40
2018-06-04T14:08:10.928Z,51.00
2018-06-04T14:10:39.300Z,49.50
2018-06-04T14:13:07.673Z,47.70
2018-06-04T14:15:36.058Z,46.70
2018-06-04T14:18:04.497Z,47.60
2018-06-04T14:20:32.829Z,48.10
2018-06-04T14:23:01.202Z,48.50
2018-06-04T14:25:29.573Z,46.50
2018-06-04T14:27:57.988Z,45.80
2018-06-04T14:30:28.521Z,47.10
2018-06-04T14:32:56.873Z,46.40
2018-06-04T14:35:26.141Z,47.20
2018-06-04T14:37:54.433Z,45.00
2018-06-04T14:40:22.775Z,45.00
2018-06-04T14:42:51.139Z,44.00
2018-06-04T14:45:19.459Z,42.90
2018-06-04T14:47:48.094Z,45.30
2018-06-04T14:50:16.541Z,45.00
2018-06-04T14:52:45.109Z,43.10
2018-06-04T14:57:42.372Z,47.50
2018-06-04T15:00:11.082Z,45.30
2018-06-04T15:02:41.553Z,44.60
2018-06-04T15:05:12.063Z,46.30
2018-06-04T15:07:41.752Z,48.90
2018-06-04T15:10:12.487Z,51.30
2018-06-04T15:12:43.631Z,52.50
2018-06-04T15:15:15.648Z,53.30
2018-06-04T15:18:00.434Z,53.70
2018-06-04T15:20:44.892Z,53.00
2018-06-04T16:15:11.110Z,48.70
2018-06-04T16:17:39.967Z,47.80
2018-06-04T16:20:10.309Z,47.70
2018-06-04T16:22:55.567Z,47.30
2018-06-04T16:25:25.318Z,48.20
2018-06-04T16:27:54.326Z,47.90
2018-06-04T16:30:23.115Z,48.90
2018-06-04T16:32:51.879Z,49.70
2018-06-04T16:35:20.314Z,50.10
2018-06-04T16:37:51.366Z,51.80
2018-06-04T16:40:24.825Z,51.20
2018-06-04T16:42:53.679Z,50.20
2018-06-04T16:45:25.478Z,50.20
2018-06-04T16:47:55.383Z,50.20
2018-06-04T16:50:24.270Z,51.10
2018-06-04T16:52:54.534Z,53.90
2018-06-04T16:55:24.034Z,55.60
2018-06-04T16:57:55.891Z,56.00
2018-06-04T17:00:24.605Z,57.10
2018-06-04T17:02:54.270Z,57.90
2018-06-04T17:05:25.251Z,58.20
2018-06-04T17:07:54.927Z,58.90
2018-06-04T17:10:28.401Z,59.10
2018-06-04T17:12:57.583Z,61.10
2018-06-04T17:15:28.232Z,62.70
2018-06-04T17:17:57.170Z,62.70
2018-06-04T17:20:35.581Z,64.20
2018-06-04T17:23:04.708Z,64.90
2018-06-04T17:25:34.502Z,64.80
2018-06-04T17:28:05.636Z,63.70
2018-06-04T17:33:21.188Z,64.40
2018-06-04T17:35:56.692Z,65.30
2018-06-04T17:38:27.427Z,66.90
2018-06-04T17:40:59.818Z,66.90
2018-06-04T17:43:30.629Z,67.20
2018-06-04T17:46:02.814Z,66.80
2018-06-04T17:48:32.277Z,67.30
2018-06-04T17:51:04.546Z,68.20
2018-06-04T17:53:33.307Z,69.30
2018-06-04T17:56:02.476Z,69.10
2018-06-04T17:58:33.141Z,70.80
2018-06-04T18:01:03.223Z,69.80
2018-06-04T18:03:31.654Z,69.00
2018-06-04T18:06:00.164Z,68.90
2018-06-04T18:08:29.661Z,67.90
2018-06-04T18:10:58.277Z,66.50
2018-06-04T18:13:26.980Z,65.70
2018-06-04T18:15:55.473Z,66.50
2018-06-04T18:21:19.159Z,66.30
2018-06-04T18:23:52.003Z,65.90
2018-06-04T18:26:21.374Z,66.60
2018-06-04T18:31:29.823Z,69.50
2018-06-04T18:33:59.245Z,69.30
2018-06-04T18:36:31.785Z,70.50
2018-06-04T18:39:01.932Z,72.10
2018-06-04T18:41:30.824Z,72.70
2018-06-04T18:46:35.499Z,72.90
2018-06-04T18:49:09.533Z,72.70
2018-06-04T18:51:39.258Z,74.30
2018-06-04T18:54:09.761Z,73.50
2018-06-04T18:56:42.310Z,74.50
2018-06-04T19:12:08.923Z,75.90
2018-06-04T19:14:38.707Z,76.40
2018-06-04T19:18:00.996Z,77.20
2018-06-04T19:26:24.890Z,77.50
2018-06-04T19:56:26.415Z,81.30
2018-06-04T20:01:52.308Z,82.00
2018-06-04T20:04:22.398Z,82.60
2018-06-04T20:10:41.056Z,83.60
2018-06-04T20:25:30.977Z,86.10
2018-06-04T20:28:04.787Z,86.10
2018-06-04T20:36:05.647Z,86.40
2018-06-04T20:38:34.758Z,87.00
2018-06-04T20:41:17.735Z,87.50
2018-06-04T20:43:49.349Z,87.40
2018-06-04T20:46:57.193Z,87.60
2018-06-04T20:57:29.062Z,88.10
2018-06-04T21:00:12.080Z,88.80
2018-06-04T21:02:44.148Z,89.10
2018-06-04T21:05:15.256Z,89.10
2018-06-04T21:07:54.228Z,88.80
2018-06-04T21:20:39.642Z,90.20
2018-06-04T23:06:20.618Z,93.80
2018-06-04T23:09:53.644Z,93.80
2018-06-04T23:12:22.190Z,93.90
2018-06-04T23:14:54.721Z,94.00
2018-06-04T23:17:27.608Z,94.20
2018-06-04T23:19:58.115Z,94.80
2018-06-04T23:22:29.940Z,94.30
2018-06-04T23:24:59.977Z,94.50
2018-06-04T23:27:31.539Z,94.60
2018-06-04T23:30:02.193Z,94.70
2018-06-04T23:32:32.522Z,94.80
2018-06-04T23:35:02.582Z,94.80
2018-06-04T23:37:33.374Z,95.10
2018-06-04T23:40:02.774Z,95.00
2018-06-04T23:42:35.835Z,95.10
2018-06-04T23:47:35.923Z,95.60
2018-06-04T23:50:06.942Z,95.60
2018-06-04T23:52:37.181Z,95.70
2018-06-04T23:55:12.540Z,95.60
2018-06-04T23:57:44.714Z,95.70
